Time,TemperatureF,DewpointF,PressureIn,WindDirection,WindDirectionDegrees,WindSpeedMPH,WindSpeedGustMPH,Humidity,HourlyPrecipIn,Conditions,Clouds,dailyrainin,SoftwareType,DateUTC
2013-04-15 00:02:00,56.7,53.5,29.93,ENE,60,2.0,3.0,89,0.00,,,0.00,Wunderground v.1.15,2013-04-15 04:02:00,
2013-04-15 00:04:00,56.8,53.3,29.93,ENE,68,2.0,-999.0,88,0.00,,,0.00,Wunderground v.1.15,2013-04-15 04:04:00,
2013-04-15 00:07:00,56.8,53.3,29.93,ENE,63,2.0,2.0,88,0.00,,,0.00,Wunderground v.1.15,2013-04-15 04:07:00,
2013-04-15 00:09:00,56.8,53.3,29.93,ENE,68,2.0,-999.0,88,0.00,,,0.00,Wunderground v.1.15,2013-04-15 04:09:00,
2013-04-15 00:12:00,56.8,53.3,29.93,ENE,75,3.0,3.0,88,0.00,,,0.00,Wunderground v.1.15,2013-04-15 04:12:00,
2013-04-15 00:14:00,56.8,53.3,29.93,ENE,68,2.0,-999.0,88,0.00,,,0.00,Wunderground v.1.15,2013-04-15 04:14:00,
2013-04-15 00:19:00,56.8,53.3,29.93,ENE,68,2.0,-999.0,88,0.00,,,0.00,Wunderground v.1.15,2013-04-15 04:19:00,
2013-04-15 00:22:00,56.8,53.6,29.93,East,84,0.0,1.0,89,0.00,,,0.00,Wunderground v.1.15,2013-04-15 04:22:00,
2013-04-15 00:24:00,56.8,53.6,29.93,East,90,1.0,-999.0,89,0.00,,,0.00,Wunderground v.1.15,2013-04-15 04:24:00,
2013-04-15 00:27:00,56.8,53.6,29.93,East,84,0.0,1.0,89,0.00,,,0.00,Wunderground v.1.15,2013-04-15 04:27:00,
2013-04-15 00:29:00,56.8,53.6,29.93,East,90,1.0,-999.0,89,0.00,,,0.00,Wunderground v.1.15,2013-04-15 04:29:00,
2013-04-15 00:32:00,56.7,53.5,29.93,NE,46,1.0,2.0,89,0.00,,,0.00,Wunderground v.1.15,2013-04-15 04:32:00,
2013-04-15 00:34:00,56.8,53.6,29.93,East,90,1.0,-999.0,89,0.00,,,0.00,Wunderground v.1.15,2013-04-15 04:34:00,
2013-04-15 00:37:00,56.5,53.3,29.93,NE,37,1.0,1.0,89,0.00,,,0.00,Wunderground v.1.15,2013-04-15 04:37:00,
2013-04-15 00:39:00,56.4,53.5,29.92,NE,45,1.0,-999.0,90,0.00,,,0.00,Wunderground v.1.15,2013-04-15 04:39:00,
2013-04-15 00:42:00,56.5,53.6,29.92,NE,37,1.0,1.0,90,0.00,,,0.00,Wunderground v.1.15,2013-04-15 04:42:00,
2013-04-15 00:44:00,56.4,53.5,29.92,NE,45,1.0,-999.0,90,0.00,,,0.00,Wunderground v.1.15,2013-04-15 04:44:00,
2013-04-15 00:47:00,56.4,53.5,29.93,NE,37,0.0,1.0,90,0.00,,,0.00,Wunderground v.1.15,2013-04-15 04:47:00,
2013-04-15 00:49:00,56.4,53.5,29.92,NE,45,1.0,-999.0,90,0.00,,,0.00,Wunderground v.1.15,2013-04-15 04:49:00,
2013-04-15 00:54:00,56.1,53.5,29.93,NE,45,0.0,-999.0,91,0.00,,,0.00,Wunderground v.1.15,2013-04-15 04:54:00,
2013-04-15 00:57:00,56.2,53.6,29.94,NE,36,0.0,0.0,91,0.00,,,0.00,Wunderground v.1.15,2013-04-15 04:57:00,
2013-04-15 00:59:00,56.1,53.5,29.93,NE,45,0.0,-999.0,91,0.00,,,0.00,Wunderground v.1.15,2013-04-15 04:59:00,
2013-04-15 01:02:00,56.1,53.5,29.93,NE,37,0.0,1.0,91,0.00,,,0.00,Wunderground v.1.15,2013-04-15 05:02:00,
2013-04-15 01:04:00,56.1,53.5,29.93,NE,45,0.0,-999.0,91,0.00,,,0.00,Wunderground v.1.15,2013-04-15 05:04:00,
2013-04-15 01:07:00,56.1,53.5,29.93,ENE,62,1.0,1.0,91,0.00,,,0.00,Wunderground v.1.15,2013-04-15 05:07:00,
2013-04-15 01:09:00,56.1,53.5,29.93,NE,45,0.0,-999.0,91,0.00,,,0.00,Wunderground v.1.15,2013-04-15 05:09:00,
2013-04-15 01:12:00,56.1,53.5,29.93,ENE,63,0.0,1.0,91,0.00,,,0.00,Wunderground v.1.15,2013-04-15 05:12:00,
2013-04-15 01:14:00,56.1,53.5,29.93,NE,45,0.0,-999.0,91,0.00,,,0.00,Wunderground v.1.15,2013-04-15 05:14:00,
2013-04-15 01:17:00,56.2,53.6,29.93,ENE,62,0.0,0.0,91,0.00,,,0.00,Wunderground v.1.15,2013-04-15 05:17:00,
2013-04-15 01:19:00,56.1,53.5,29.93,NE,45,0.0,-999.0,91,0.00,,,0.00,Wunderground v.1.15,2013-04-15 05:19:00,
2013-04-15 01:24:00,56.1,53.8,29.93,N/A,-737280,0.0,-999.0,92,0.00,,,0.00,Wunderground v.1.15,2013-04-15 05:24:00,
2013-04-15 01:27:00,56.1,53.8,29.93,ENE,63,0.0,0.0,92,0.00,,,0.00,Wunderground v.1.15,2013-04-15 05:27:00,
2013-04-15 01:29:00,56.1,53.8,29.93,N/A,-737280,0.0,-999.0,92,0.00,,,0.00,Wunderground v.1.15,2013-04-15 05:29:00,
2013-04-15 01:32:00,56.0,53.7,29.93,ENE,63,0.0,0.0,92,0.00,,,0.00,Wunderground v.1.15,2013-04-15 05:32:00,
2013-04-15 01:34:00,56.1,53.8,29.93,N/A,-737280,0.0,-999.0,92,0.00,,,0.00,Wunderground v.1.15,2013-04-15 05:34:00,
2013-04-15 01:37:00,56.0,53.7,29.93,ENE,68,0.0,1.0,92,0.00,,,0.00,Wunderground v.1.15,2013-04-15 05:37:00,
2013-04-15 01:39:00,56.0,54.0,29.93,WSW,248,0.0,-999.0,93,0.00,,,0.00,Wunderground v.1.15,2013-04-15 05:39:00,
2013-04-15 01:42:00,55.9,53.9,29.93,WSW,239,0.0,1.0,93,0.00,,,0.00,Wunderground v.1.15,2013-04-15 05:42:00,
2013-04-15 01:44:00,56.0,54.0,29.93,WSW,248,0.0,-999.0,93,0.00,,,0.00,Wunderground v.1.15,2013-04-15 05:44:00,
2013-04-15 01:47:00,55.9,53.9,29.93,WSW,249,1.0,1.0,93,0.00,,,0.00,Wunderground v.1.15,2013-04-15 05:47:00,
2013-04-15 01:49:00,56.0,54.0,29.93,WSW,248,0.0,-999.0,93,0.00,,,0.00,Wunderground v.1.15,2013-04-15 05:49:00,
2013-04-15 01:52:00,55.8,53.8,29.93,WSW,249,0.0,1.0,93,0.00,,,0.00,Wunderground v.1.15,2013-04-15 05:52:00,
2013-04-15 01:54:00,55.7,53.7,29.93,WSW,248,0.0,-999.0,93,0.00,,,0.00,Wunderground v.1.15,2013-04-15 05:54:00,
2013-04-15 01:59:00,55.7,53.7,29.93,WSW,248,0.0,-999.0,93,0.00,,,0.00,Wunderground v.1.15,2013-04-15 05:59:00,
2013-04-15 02:02:00,55.6,53.6,29.93,WSW,249,0.0,0.0,93,0.00,,,0.00,Wunderground v.1.15,2013-04-15 06:02:00,
2013-04-15 02:04:00,55.7,53.7,29.93,WSW,248,0.0,-999.0,93,0.00,,,0.00,Wunderground v.1.15,2013-04-15 06:04:00,
2013-04-15 02:07:00,55.5,53.8,29.93,WSW,249,0.0,0.0,94,0.00,,,0.00,Wunderground v.1.15,2013-04-15 06:07:00,
2013-04-15 02:09:00,55.5,53.8,29.92,N/A,-737280,0.0,-999.0,94,0.00,,,0.00,Wunderground v.1.15,2013-04-15 06:09:00,
2013-04-15 02:14:00,55.5,53.8,29.92,N/A,-737280,0.0,-999.0,94,0.00,,,0.00,Wunderground v.1.15,2013-04-15 06:14:00,
2013-04-15 02:17:00,55.5,53.8,29.92,WSW,249,0.0,0.0,94,0.00,,,0.00,Wunderground v.1.15,2013-04-15 06:17:00,
2013-04-15 02:19:00,55.5,53.8,29.92,N/A,-737280,0.0,-999.0,94,0.00,,,0.00,Wunderground v.1.15,2013-04-15 06:19:00,
2013-04-15 02:22:00,55.5,53.8,29.92,WSW,248,0.0,0.0,94,0.00,,,0.00,Wunderground v.1.15,2013-04-15 06:22:00,
2013-04-15 02:24:00,55.4,53.7,29.91,N/A,-737280,0.0,-999.0,94,0.00,,,0.00,Wunderground v.1.15,2013-04-15 06:24:00,
2013-04-15 02:27:00,55.4,53.7,29.91,WSW,249,0.0,0.0,94,0.00,,,0.00,Wunderground v.1.15,2013-04-15 06:27:00,
2013-04-15 02:29:00,55.4,53.7,29.91,N/A,-737280,0.0,-999.0,94,0.00,,,0.00,Wunderground v.1.15,2013-04-15 06:29:00,
2013-04-15 02:34:00,55.4,53.7,29.91,N/A,-737280,0.0,-999.0,94,0.00,,,0.00,Wunderground v.1.15,2013-04-15 06:34:00,
2013-04-15 02:37:00,55.5,54.1,29.91,WSW,249,0.0,1.0,95,0.00,,,0.00,Wunderground v.1.15,2013-04-15 06:37:00,
2013-04-15 02:39:00,55.5,54.1,29.91,WNW,293,0.0,-999.0,95,0.00,,,0.00,Wunderground v.1.15,2013-04-15 06:39:00,
2013-04-15 02:42:00,55.5,54.1,29.91,WNW,288,0.0,1.0,95,0.00,,,0.00,Wunderground v.1.15,2013-04-15 06:42:00,
2013-04-15 02:44:00,55.5,54.1,29.91,WNW,293,0.0,-999.0,95,0.00,,,0.00,Wunderground v.1.15,2013-04-15 06:44:00,
2013-04-15 02:47:00,55.5,54.1,29.91,WNW,288,0.0,0.0,95,0.00,,,0.00,Wunderground v.1.15,2013-04-15 06:47:00,
2013-04-15 02:49:00,55.5,54.1,29.91,WNW,293,0.0,-999.0,95,0.00,,,0.00,Wunderground v.1.15,2013-04-15 06:49:00,
2013-04-15 02:52:00,55.5,54.1,29.91,WNW,288,0.0,0.0,95,0.00,,,0.00,Wunderground v.1.15,2013-04-15 06:52:00,
2013-04-15 02:54:00,55.3,53.9,29.91,N/A,-737280,0.0,-999.0,95,0.00,,,0.00,Wunderground v.1.15,2013-04-15 06:54:00,
2013-04-15 02:57:00,55.4,54.0,29.91,WNW,288,0.0,0.0,95,0.00,,,0.00,Wunderground v.1.15,2013-04-15 06:57:00,
2013-04-15 02:59:00,55.3,53.9,29.91,N/A,-737280,0.0,-999.0,95,0.00,,,0.00,Wunderground v.1.15,2013-04-15 06:59:00,
2013-04-15 03:04:00,55.3,53.9,29.91,N/A,-737280,0.0,-999.0,95,0.00,,,0.00,Wunderground v.1.15,2013-04-15 07:04:00,
2013-04-15 03:09:00,55.3,53.9,29.91,WNW,293,0.0,-999.0,95,0.00,,,0.00,Wunderground v.1.15,2013-04-15 07:09:00,
2013-04-15 03:14:00,55.3,53.9,29.91,WNW,293,0.0,-999.0,95,0.00,,,0.00,Wunderground v.1.15,2013-04-15 07:14:00,
2013-04-15 03:19:00,55.3,53.9,29.91,WNW,293,0.0,-999.0,95,0.00,,,0.00,Wunderground v.1.15,2013-04-15 07:19:00,
2013-04-15 03:24:00,55.4,54.0,29.91,N/A,-737280,0.0,-999.0,95,0.00,,,0.00,Wunderground v.1.15,2013-04-15 07:24:00,
2013-04-15 03:29:00,55.4,54.0,29.91,N/A,-737280,0.0,-999.0,95,0.00,,,0.00,Wunderground v.1.15,2013-04-15 07:29:00,
2013-04-15 03:34:00,55.4,54.0,29.91,N/A,-737280,0.0,-999.0,95,0.00,,,0.00,Wunderground v.1.15,2013-04-15 07:34:00,
2013-04-15 03:39:00,55.6,54.2,29.91,WNW,293,0.0,-999.0,95,0.00,,,0.00,Wunderground v.1.15,2013-04-15 07:39:00,
2013-04-15 03:42:00,55.6,54.2,29.91,WNW,286,0.0,1.0,95,0.00,,,0.00,Wunderground v.1.15,2013-04-15 07:42:00,
2013-04-15 03:44:00,55.6,54.2,29.91,WNW,293,0.0,-999.0,95,0.00,,,0.00,Wunderground v.1.15,2013-04-15 07:44:00,
2013-04-15 03:47:00,55.6,54.2,29.91,WNW,287,0.0,0.0,95,0.00,,,0.00,Wunderground v.1.15,2013-04-15 07:47:00,
2013-04-15 03:49:00,55.6,54.2,29.91,WNW,293,0.0,-999.0,95,0.00,,,0.00,Wunderground v.1.15,2013-04-15 07:49:00,
2013-04-15 03:52:00,55.6,54.2,29.91,WNW,286,0.0,0.0,95,0.00,,,0.00,Wunderground v.1.15,2013-04-15 07:52:00,
2013-04-15 03:54:00,55.5,54.4,29.91,WNW,293,0.0,-999.0,96,0.00,,,0.00,Wunderground v.1.15,2013-04-15 07:54:00,
2013-04-15 03:57:00,55.6,54.2,29.91,WNW,287,0.0,0.0,95,0.00,,,0.00,Wunderground v.1.15,2013-04-15 07:57:00,
2013-04-15 03:59:00,55.5,54.4,29.91,WNW,293,0.0,-999.0,96,0.00,,,0.00,Wunderground v.1.15,2013-04-15 07:59:00,
2013-04-15 04:02:00,55.5,54.1,29.91,WNW,287,0.0,0.0,95,0.00,,,0.00,Wunderground v.1.15,2013-04-15 08:02:00,
2013-04-15 04:04:00,55.5,54.4,29.91,WNW,293,0.0,-999.0,96,0.00,,,0.00,Wunderground v.1.15,2013-04-15 08:04:00,
2013-04-15 04:07:00,55.5,54.4,29.91,WNW,287,0.0,0.0,96,0.00,,,0.00,Wunderground v.1.15,2013-04-15 08:07:00,
2013-04-15 04:09:00,55.5,54.4,29.92,N/A,-737280,0.0,-999.0,96,0.00,,,0.00,Wunderground v.1.15,2013-04-15 08:09:00,
2013-04-15 04:12:00,55.5,54.4,29.92,WNW,286,0.0,0.0,96,0.00,,,0.00,Wunderground v.1.15,2013-04-15 08:12:00,
2013-04-15 04:14:00,55.5,54.4,29.92,N/A,-737280,0.0,-999.0,96,0.00,,,0.00,Wunderground v.1.15,2013-04-15 08:14:00,
2013-04-15 04:17:00,55.5,54.4,29.92,WNW,287,0.0,0.0,96,0.00,,,0.00,Wunderground v.1.15,2013-04-15 08:17:00,
2013-04-15 04:19:00,55.5,54.4,29.92,N/A,-737280,0.0,-999.0,96,0.00,,,0.00,Wunderground v.1.15,2013-04-15 08:19:00,
2013-04-15 04:22:00,55.5,54.4,29.92,WNW,287,0.0,0.0,96,0.00,,,0.00,Wunderground v.1.15,2013-04-15 08:22:00,
2013-04-15 04:24:00,55.6,54.5,29.92,N/A,-737280,0.0,-999.0,96,0.00,,,0.00,Wunderground v.1.15,2013-04-15 08:24:00,
2013-04-15 04:27:00,55.6,54.5,29.92,WNW,287,0.0,0.0,96,0.00,,,0.00,Wunderground v.1.15,2013-04-15 08:27:00,
2013-04-15 04:29:00,55.6,54.5,29.92,N/A,-737280,0.0,-999.0,96,0.00,,,0.00,Wunderground v.1.15,2013-04-15 08:29:00,
2013-04-15 04:32:00,55.6,54.5,29.92,WNW,287,0.0,0.0,96,0.00,,,0.00,Wunderground v.1.15,2013-04-15 08:32:00,
2013-04-15 04:34:00,55.6,54.5,29.92,N/A,-737280,0.0,-999.0,96,0.00,,,0.00,Wunderground v.1.15,2013-04-15 08:34:00,
2013-04-15 04:37:00,55.6,54.5,29.92,WNW,287,0.0,0.0,96,0.00,,,0.00,Wunderground v.1.15,2013-04-15 08:37:00,
2013-04-15 04:39:00,55.6,54.5,29.92,N/A,-737280,0.0,-999.0,96,0.00,,,0.00,Wunderground v.1.15,2013-04-15 08:39:00,
2013-04-15 04:42:00,55.6,54.5,29.92,WNW,288,0.0,0.0,96,0.00,,,0.00,Wunderground v.1.15,2013-04-15 08:42:00,
2013-04-15 04:44:00,55.6,54.5,29.92,N/A,-737280,0.0,-999.0,96,0.00,,,0.00,Wunderground v.1.15,2013-04-15 08:44:00,
2013-04-15 04:47:00,55.6,54.5,29.92,WNW,288,0.0,0.0,96,0.00,,,0.00,Wunderground v.1.15,2013-04-15 08:47:00,
2013-04-15 04:49:00,55.6,54.5,29.92,N/A,-737280,0.0,-999.0,96,0.00,,,0.00,Wunderground v.1.15,2013-04-15 08:49:00,
2013-04-15 04:54:00,55.7,54.6,29.92,N/A,-737280,0.0,-999.0,96,0.00,,,0.00,Wunderground v.1.15,2013-04-15 08:54:00,
2013-04-15 04:57:00,55.6,54.5,29.92,WNW,287,0.0,0.0,96,0.00,,,0.00,Wunderground v.1.15,2013-04-15 08:57:00,
2013-04-15 04:59:00,55.7,54.6,29.92,N/A,-737280,0.0,-999.0,96,0.00,,,0.00,Wunderground v.1.15,2013-04-15 08:59:00,
2013-04-15 05:02:00,55.7,54.6,29.92,WNW,288,0.0,0.0,96,0.00,,,0.00,Wunderground v.1.15,2013-04-15 09:02:00,
2013-04-15 05:04:00,55.7,54.6,29.92,N/A,-737280,0.0,-999.0,96,0.00,,,0.00,Wunderground v.1.15,2013-04-15 09:04:00,
2013-04-15 05:09:00,55.6,54.5,29.93,N/A,-737280,0.0,-999.0,96,0.00,,,0.00,Wunderground v.1.15,2013-04-15 09:09:00,
2013-04-15 05:12:00,55.6,54.5,29.92,WNW,286,0.0,0.0,96,0.00,,,0.00,Wunderground v.1.15,2013-04-15 09:12:00,
2013-04-15 05:14:00,55.6,54.5,29.93,N/A,-737280,0.0,-999.0,96,0.00,,,0.00,Wunderground v.1.15,2013-04-15 09:14:00,
2013-04-15 05:17:00,55.6,54.5,29.93,WNW,287,0.0,0.0,96,0.00,,,0.00,Wunderground v.1.15,2013-04-15 09:17:00,
2013-04-15 05:19:00,55.6,54.5,29.93,N/A,-737280,0.0,-999.0,96,0.00,,,0.00,Wunderground v.1.15,2013-04-15 09:19:00,
2013-04-15 05:22:00,55.6,54.5,29.93,WNW,287,0.0,0.0,96,0.00,,,0.00,Wunderground v.1.15,2013-04-15 09:22:00,
2013-04-15 05:24:00,55.6,54.5,29.93,N/A,-737280,0.0,-999.0,96,0.00,,,0.00,Wunderground v.1.15,2013-04-15 09:24:00,
2013-04-15 05:27:00,55.6,54.5,29.93,WNW,288,0.0,0.0,96,0.00,,,0.00,Wunderground v.1.15,2013-04-15 09:27:00,
2013-04-15 05:29:00,55.6,54.5,29.93,N/A,-737280,0.0,-999.0,96,0.00,,,0.00,Wunderground v.1.15,2013-04-15 09:29:00,
2013-04-15 05:32:00,55.6,54.5,29.93,WNW,287,0.0,0.0,96,0.00,,,0.00,Wunderground v.1.15,2013-04-15 09:32:00,
2013-04-15 05:34:00,55.6,54.5,29.93,N/A,-737280,0.0,-999.0,96,0.00,,,0.00,Wunderground v.1.15,2013-04-15 09:34:00,
2013-04-15 05:39:00,55.7,54.6,29.94,N/A,-737280,0.0,-999.0,96,0.00,,,0.00,Wunderground v.1.15,2013-04-15 09:39:00,
2013-04-15 05:42:00,55.7,54.6,29.94,WNW,287,0.0,0.0,96,0.00,,,0.00,Wunderground v.1.15,2013-04-15 09:42:00,
2013-04-15 05:44:00,55.7,54.6,29.94,N/A,-737280,0.0,-999.0,96,0.00,,,0.00,Wunderground v.1.15,2013-04-15 09:44:00,
2013-04-15 05:47:00,55.7,54.6,29.94,WNW,287,0.0,0.0,96,0.00,,,0.00,Wunderground v.1.15,2013-04-15 09:47:00,
2013-04-15 05:49:00,55.7,54.6,29.94,N/A,-737280,0.0,-999.0,96,0.00,,,0.00,Wunderground v.1.15,2013-04-15 09:49:00,
2013-04-15 05:52:00,55.6,54.5,29.94,WNW,286,0.0,0.0,96,0.00,,,0.00,Wunderground v.1.15,2013-04-15 09:52:00,
2013-04-15 05:54:00,55.6,54.5,29.94,N/A,-737280,0.0,-999.0,96,0.00,,,0.00,Wunderground v.1.15,2013-04-15 09:54:00,
2013-04-15 05:57:00,55.6,54.5,29.94,WNW,287,0.0,0.0,96,0.00,,,0.00,Wunderground v.1.15,2013-04-15 09:57:00,
2013-04-15 05:59:00,55.6,54.5,29.94,N/A,-737280,0.0,-999.0,96,0.00,,,0.00,Wunderground v.1.15,2013-04-15 09:59:00,
2013-04-15 06:04:00,55.6,54.5,29.94,N/A,-737280,0.0,-999.0,96,0.00,,,0.00,Wunderground v.1.15,2013-04-15 10:04:00,
2013-04-15 06:07:00,55.6,54.5,29.94,WNW,287,0.0,0.0,96,0.00,,,0.00,Wunderground v.1.15,2013-04-15 10:07:00,
2013-04-15 06:09:00,55.6,54.5,29.94,N/A,-737280,0.0,-999.0,96,0.00,,,0.00,Wunderground v.1.15,2013-04-15 10:09:00,
2013-04-15 06:12:00,55.6,54.5,29.94,WNW,287,0.0,0.0,96,0.00,,,0.00,Wunderground v.1.15,2013-04-15 10:12:00,
2013-04-15 06:14:00,55.6,54.5,29.94,N/A,-737280,0.0,-999.0,96,0.00,,,0.00,Wunderground v.1.15,2013-04-15 10:14:00,
2013-04-15 06:17:00,55.6,54.5,29.94,WNW,287,0.0,0.0,96,0.00,,,0.00,Wunderground v.1.15,2013-04-15 10:17:00,
2013-04-15 06:19:00,55.6,54.5,29.94,N/A,-737280,0.0,-999.0,96,0.00,,,0.00,Wunderground v.1.15,2013-04-15 10:19:00,
2013-04-15 06:22:00,55.4,54.3,29.94,WNW,286,0.0,0.0,96,0.00,,,0.00,Wunderground v.1.15,2013-04-15 10:22:00,
2013-04-15 06:24:00,55.2,54.1,29.94,N/A,-737280,0.0,-999.0,96,0.00,,,0.00,Wunderground v.1.15,2013-04-15 10:24:00,
2013-04-15 06:27:00,55.3,54.2,29.94,WNW,287,0.0,0.0,96,0.00,,,0.00,Wunderground v.1.15,2013-04-15 10:27:00,
2013-04-15 06:29:00,55.2,54.1,29.94,N/A,-737280,0.0,-999.0,96,0.00,,,0.00,Wunderground v.1.15,2013-04-15 10:29:00,
2013-04-15 06:32:00,55.2,54.1,29.95,WNW,288,0.0,0.0,96,0.00,,,0.00,Wunderground v.1.15,2013-04-15 10:32:00,
2013-04-15 06:34:00,55.2,54.1,29.94,N/A,-737280,0.0,-999.0,96,0.00,,,0.00,Wunderground v.1.15,2013-04-15 10:34:00,
2013-04-15 06:37:00,55.3,54.5,29.95,WNW,287,0.0,0.0,97,0.00,,,0.00,Wunderground v.1.15,2013-04-15 10:37:00,
2013-04-15 06:39:00,55.3,54.5,29.95,N/A,-737280,0.0,-999.0,97,0.00,,,0.00,Wunderground v.1.15,2013-04-15 10:39:00,
2013-04-15 06:44:00,55.3,54.5,29.95,N/A,-737280,0.0,-999.0,97,0.00,,,0.00,Wunderground v.1.15,2013-04-15 10:44:00,
2013-04-15 06:47:00,55.3,54.5,29.96,WNW,287,0.0,0.0,97,0.00,,,0.00,Wunderground v.1.15,2013-04-15 10:47:00,
2013-04-15 06:49:00,55.3,54.5,29.95,N/A,-737280,0.0,-999.0,97,0.00,,,0.00,Wunderground v.1.15,2013-04-15 10:49:00,
2013-04-15 06:52:00,55.5,54.7,29.96,WNW,287,0.0,0.0,97,0.00,,,0.00,Wunderground v.1.15,2013-04-15 10:52:00,
2013-04-15 06:54:00,55.6,54.8,29.96,N/A,-737280,0.0,-999.0,97,0.00,,,0.00,Wunderground v.1.15,2013-04-15 10:54:00,
2013-04-15 06:57:00,55.6,54.8,29.96,WNW,287,0.0,0.0,97,0.00,,,0.00,Wunderground v.1.15,2013-04-15 10:57:00,
2013-04-15 06:59:00,55.6,54.8,29.96,N/A,-737280,0.0,-999.0,97,0.00,,,0.00,Wunderground v.1.15,2013-04-15 10:59:00,
2013-04-15 07:02:00,55.7,54.9,29.97,WNW,287,0.0,0.0,97,0.00,,,0.00,Wunderground v.1.15,2013-04-15 11:02:00,
2013-04-15 07:04:00,55.6,54.8,29.96,N/A,-737280,0.0,-999.0,97,0.00,,,0.00,Wunderground v.1.15,2013-04-15 11:04:00,
2013-04-15 07:07:00,55.7,54.9,29.97,WNW,298,0.0,0.0,97,0.00,,,0.00,Wunderground v.1.15,2013-04-15 11:07:00,
2013-04-15 07:09:00,55.8,55.0,29.97,WNW,293,0.0,-999.0,97,0.00,,,0.00,Wunderground v.1.15,2013-04-15 11:09:00,
2013-04-15 07:14:00,55.8,55.0,29.97,WNW,293,0.0,-999.0,97,0.00,,,0.00,Wunderground v.1.15,2013-04-15 11:14:00,
2013-04-15 07:17:00,55.9,55.1,29.97,WNW,297,0.0,0.0,97,0.00,,,0.00,Wunderground v.1.15,2013-04-15 11:17:00,
2013-04-15 07:19:00,55.8,55.0,29.97,WNW,293,0.0,-999.0,97,0.00,,,0.00,Wunderground v.1.15,2013-04-15 11:19:00,
2013-04-15 07:22:00,55.9,55.1,29.97,WNW,298,0.0,0.0,97,0.00,,,0.00,Wunderground v.1.15,2013-04-15 11:22:00,
2013-04-15 07:24:00,55.9,55.1,29.98,N/A,-737280,0.0,-999.0,97,0.00,,,0.00,Wunderground v.1.15,2013-04-15 11:24:00,
2013-04-15 07:27:00,55.9,55.1,29.98,WNW,297,0.0,0.0,97,0.00,,,0.00,Wunderground v.1.15,2013-04-15 11:27:00,
2013-04-15 07:29:00,55.9,55.1,29.98,N/A,-737280,0.0,-999.0,97,0.00,,,0.00,Wunderground v.1.15,2013-04-15 11:29:00,
2013-04-15 07:32:00,55.9,55.1,29.98,North,356,0.0,1.0,97,0.00,,,0.00,Wunderground v.1.15,2013-04-15 11:32:00,
2013-04-15 07:34:00,55.9,55.1,29.98,N/A,-737280,0.0,-999.0,97,0.00,,,0.00,Wunderground v.1.15,2013-04-15 11:34:00,
2013-04-15 07:37:00,56.0,55.2,29.98,North,355,0.0,0.0,97,0.00,,,0.00,Wunderground v.1.15,2013-04-15 11:37:00,
2013-04-15 07:39:00,56.0,55.2,29.99,North,0,0.0,-999.0,97,0.00,,,0.00,Wunderground v.1.15,2013-04-15 11:39:00,
2013-04-15 07:44:00,56.0,55.2,29.99,North,0,0.0,-999.0,97,0.00,,,0.00,Wunderground v.1.15,2013-04-15 11:44:00,
2013-04-15 07:47:00,56.0,55.2,29.99,North,356,0.0,0.0,97,0.00,,,0.00,Wunderground v.1.15,2013-04-15 11:47:00,
2013-04-15 07:49:00,56.0,55.2,29.99,North,0,0.0,-999.0,97,0.00,,,0.00,Wunderground v.1.15,2013-04-15 11:49:00,
2013-04-15 07:52:00,56.1,55.3,29.99,North,355,0.0,0.0,97,0.00,,,0.00,Wunderground v.1.15,2013-04-15 11:52:00,
2013-04-15 07:54:00,56.2,55.4,29.99,North,0,0.0,-999.0,97,0.00,,,0.00,Wunderground v.1.15,2013-04-15 11:54:00,
2013-04-15 07:57:00,56.1,55.3,29.99,North,356,0.0,0.0,97,0.00,,,0.00,Wunderground v.1.15,2013-04-15 11:57:00,
2013-04-15 07:59:00,56.2,55.4,29.99,North,0,0.0,-999.0,97,0.00,,,0.00,Wunderground v.1.15,2013-04-15 11:59:00,
2013-04-15 08:02:00,56.2,55.1,29.99,NE,49,0.0,1.0,96,0.00,,,0.00,Wunderground v.1.15,2013-04-15 12:02:00,
2013-04-15 08:04:00,56.2,55.4,29.99,North,0,0.0,-999.0,97,0.00,,,0.00,Wunderground v.1.15,2013-04-15 12:04:00,
2013-04-15 08:07:00,56.3,55.5,30.00,ENE,61,1.0,1.0,97,0.00,,,0.00,Wunderground v.1.15,2013-04-15 12:07:00,
2013-04-15 08:09:00,56.6,55.5,30.00,ENE,68,1.0,-999.0,96,0.00,,,0.00,Wunderground v.1.15,2013-04-15 12:09:00,
2013-04-15 08:12:00,56.5,55.4,30.00,ENE,61,1.0,1.0,96,0.00,,,0.00,Wunderground v.1.15,2013-04-15 12:12:00,
2013-04-15 08:14:00,56.6,55.5,30.00,ENE,68,1.0,-999.0,96,0.00,,,0.00,Wunderground v.1.15,2013-04-15 12:14:00,
2013-04-15 08:17:00,56.6,55.5,30.00,ENE,60,1.0,1.0,96,0.00,,,0.00,Wunderground v.1.15,2013-04-15 12:17:00,
2013-04-15 08:19:00,56.6,55.5,30.00,ENE,68,1.0,-999.0,96,0.00,,,0.00,Wunderground v.1.15,2013-04-15 12:19:00,
2013-04-15 08:24:00,57.0,55.9,30.00,ENE,68,1.0,-999.0,96,0.00,,,0.00,Wunderground v.1.15,2013-04-15 12:24:00,
2013-04-15 08:27:00,56.9,55.8,30.00,ENE,62,1.0,1.0,96,0.00,,,0.00,Wunderground v.1.15,2013-04-15 12:27:00,
2013-04-15 08:29:00,57.0,55.9,30.00,ENE,68,1.0,-999.0,96,0.00,,,0.00,Wunderground v.1.15,2013-04-15 12:29:00,
2013-04-15 08:32:00,57.0,55.9,30.00,ENE,63,0.0,1.0,96,0.00,,,0.00,Wunderground v.1.15,2013-04-15 12:32:00,
2013-04-15 08:34:00,57.0,55.9,30.00,ENE,68,1.0,-999.0,96,0.00,,,0.00,Wunderground v.1.15,2013-04-15 12:34:00,
2013-04-15 08:37:00,57.3,56.2,30.00,East,81,0.0,0.0,96,0.00,,,0.00,Wunderground v.1.15,2013-04-15 12:37:00,
2013-04-15 08:39:00,57.7,56.3,30.00,ENE,68,0.0,-999.0,95,0.00,,,0.00,Wunderground v.1.15,2013-04-15 12:39:00,
2013-04-15 08:42:00,57.6,56.2,30.00,East,80,0.0,0.0,95,0.00,,,0.00,Wunderground v.1.15,2013-04-15 12:42:00,
2013-04-15 08:44:00,57.7,56.3,30.00,ENE,68,0.0,-999.0,95,0.00,,,0.00,Wunderground v.1.15,2013-04-15 12:44:00,
2013-04-15 08:47:00,57.8,56.4,30.00,East,80,0.0,0.0,95,0.00,,,0.00,Wunderground v.1.15,2013-04-15 12:47:00,
2013-04-15 08:49:00,57.7,56.3,30.00,ENE,68,0.0,-999.0,95,0.00,,,0.00,Wunderground v.1.15,2013-04-15 12:49:00,
2013-04-15 08:54:00,58.1,56.4,30.00,ENE,68,0.0,-999.0,94,0.00,,,0.00,Wunderground v.1.15,2013-04-15 12:54:00,
2013-04-15 08:57:00,58.1,56.4,30.00,ENE,75,0.0,0.0,94,0.00,,,0.00,Wunderground v.1.15,2013-04-15 12:57:00,
2013-04-15 08:59:00,58.1,56.4,30.00,ENE,68,0.0,-999.0,94,0.00,,,0.00,Wunderground v.1.15,2013-04-15 12:59:00,
2013-04-15 09:02:00,58.2,56.5,30.00,ENE,75,0.0,0.0,94,0.00,,,0.00,Wunderground v.1.15,2013-04-15 13:02:00,
2013-04-15 09:04:00,58.1,56.4,30.00,ENE,68,0.0,-999.0,94,0.00,,,0.00,Wunderground v.1.15,2013-04-15 13:04:00,
2013-04-15 09:09:00,58.7,56.7,30.00,ENE,68,0.0,-999.0,93,0.00,,,0.00,Wunderground v.1.15,2013-04-15 13:09:00,
2013-04-15 09:12:00,58.6,56.6,30.00,NNE,15,0.0,0.0,93,0.00,,,0.00,Wunderground v.1.15,2013-04-15 13:12:00,
2013-04-15 09:14:00,58.7,56.7,30.00,ENE,68,0.0,-999.0,93,0.00,,,0.00,Wunderground v.1.15,2013-04-15 13:14:00,
2013-04-15 09:17:00,58.8,56.8,30.01,North,350,0.0,0.0,93,0.00,,,0.00,Wunderground v.1.15,2013-04-15 13:17:00,
2013-04-15 09:19:00,58.7,56.7,30.00,ENE,68,0.0,-999.0,93,0.00,,,0.00,Wunderground v.1.15,2013-04-15 13:19:00,
2013-04-15 09:22:00,58.9,56.9,30.01,NNW,340,0.0,0.0,93,0.00,,,0.00,Wunderground v.1.15,2013-04-15 13:22:00,
2013-04-15 09:24:00,58.9,56.3,30.01,WNW,293,1.0,-999.0,91,0.00,,,0.00,Wunderground v.1.15,2013-04-15 13:24:00,
2013-04-15 09:29:00,58.9,56.3,30.01,WNW,293,1.0,-999.0,91,0.00,,,0.00,Wunderground v.1.15,2013-04-15 13:29:00,
2013-04-15 09:32:00,58.9,56.6,30.01,West,265,1.0,2.0,92,0.00,,,0.00,Wunderground v.1.15,2013-04-15 13:32:00,
2013-04-15 09:34:00,58.9,56.3,30.01,WNW,293,1.0,-999.0,91,0.00,,,0.00,Wunderground v.1.15,2013-04-15 13:34:00,
2013-04-15 09:37:00,59.1,56.8,30.01,WSW,248,2.0,2.0,92,0.00,,,0.00,Wunderground v.1.15,2013-04-15 13:37:00,
2013-04-15 09:39:00,59.4,56.8,30.01,West,270,3.0,-999.0,91,0.00,,,0.00,Wunderground v.1.15,2013-04-15 13:39:00,
2013-04-15 09:42:00,59.3,56.7,30.01,West,260,3.0,3.0,91,0.00,,,0.00,Wunderground v.1.15,2013-04-15 13:42:00,
2013-04-15 09:44:00,59.4,56.8,30.01,West,270,3.0,-999.0,91,0.00,,,0.00,Wunderground v.1.15,2013-04-15 13:44:00,
2013-04-15 09:47:00,59.5,56.9,30.01,WSW,242,3.0,3.0,91,0.00,,,0.00,Wunderground v.1.15,2013-04-15 13:47:00,
2013-04-15 09:49:00,59.4,56.8,30.01,West,270,3.0,-999.0,91,0.00,,,0.00,Wunderground v.1.15,2013-04-15 13:49:00,
2013-04-15 09:52:00,59.7,57.1,30.01,West,260,3.0,3.0,91,0.00,,,0.00,Wunderground v.1.15,2013-04-15 13:52:00,
2013-04-15 09:54:00,60.2,57.3,30.01,WSW,248,2.0,-999.0,90,0.00,,,0.00,Wunderground v.1.15,2013-04-15 13:54:00,
2013-04-15 09:57:00,60.1,57.5,30.01,West,277,2.0,3.0,91,0.00,,,0.00,Wunderground v.1.15,2013-04-15 13:57:00,
2013-04-15 09:59:00,60.2,57.3,30.01,WSW,248,2.0,-999.0,90,0.00,,,0.00,Wunderground v.1.15,2013-04-15 13:59:00,
2013-04-15 10:04:00,60.2,57.3,30.01,WSW,248,2.0,-999.0,90,0.00,,,0.00,Wunderground v.1.15,2013-04-15 14:04:00,
2013-04-15 10:07:00,60.5,57.6,30.01,WSW,254,3.0,3.0,90,0.00,,,0.00,Wunderground v.1.15,2013-04-15 14:07:00,
2013-04-15 10:09:00,60.9,57.9,30.02,West,270,3.0,-999.0,90,0.00,,,0.00,Wunderground v.1.15,2013-04-15 14:09:00,
2013-04-15 10:12:00,60.7,57.4,30.02,West,278,3.0,3.0,89,0.00,,,0.00,Wunderground v.1.15,2013-04-15 14:12:00,
2013-04-15 10:14:00,60.9,57.9,30.02,West,270,3.0,-999.0,90,0.00,,,0.00,Wunderground v.1.15,2013-04-15 14:14:00,
2013-04-15 10:17:00,61.0,57.7,30.02,West,263,2.0,2.0,89,0.00,,,0.00,Wunderground v.1.15,2013-04-15 14:17:00,
2013-04-15 10:19:00,60.9,57.9,30.02,West,270,3.0,-999.0,90,0.00,,,0.00,Wunderground v.1.15,2013-04-15 14:19:00,
2013-04-15 10:22:00,61.6,58.6,30.02,WSW,252,2.0,2.0,90,0.00,,,0.00,Wunderground v.1.15,2013-04-15 14:22:00,
2013-04-15 10:24:00,62.5,58.9,30.02,WSW,248,1.0,-999.0,88,0.00,,,0.00,Wunderground v.1.15,2013-04-15 14:24:00,
2013-04-15 10:27:00,62.2,58.6,30.02,West,267,1.0,1.0,88,0.00,,,0.00,Wunderground v.1.15,2013-04-15 14:27:00,
2013-04-15 10:29:00,62.5,58.9,30.02,WSW,248,1.0,-999.0,88,0.00,,,0.00,Wunderground v.1.15,2013-04-15 14:29:00,
2013-04-15 10:32:00,62.7,58.8,30.02,SW,222,1.0,1.0,87,0.00,,,0.00,Wunderground v.1.15,2013-04-15 14:32:00,
2013-04-15 10:34:00,62.5,58.9,30.02,WSW,248,1.0,-999.0,88,0.00,,,0.00,Wunderground v.1.15,2013-04-15 14:34:00,
2013-04-15 10:39:00,63.0,58.4,30.02,West,270,3.0,-999.0,85,0.00,,,0.00,Wunderground v.1.15,2013-04-15 14:39:00,
2013-04-15 10:42:00,63.0,58.4,30.02,West,264,2.0,4.0,85,0.00,,,0.00,Wunderground v.1.15,2013-04-15 14:42:00,
2013-04-15 10:44:00,63.0,58.4,30.02,West,270,3.0,-999.0,85,0.00,,,0.00,Wunderground v.1.15,2013-04-15 14:44:00,
2013-04-15 10:47:00,63.2,58.3,30.02,SW,233,4.0,6.0,84,0.00,,,0.00,Wunderground v.1.15,2013-04-15 14:47:00,
2013-04-15 10:49:00,63.0,58.4,30.02,West,270,3.0,-999.0,85,0.00,,,0.00,Wunderground v.1.15,2013-04-15 14:49:00,
2013-04-15 10:52:00,63.4,58.1,30.01,West,263,5.0,6.0,83,0.00,,,0.00,Wunderground v.1.15,2013-04-15 14:52:00,
2013-04-15 10:54:00,64.1,58.8,30.01,WSW,248,4.0,-999.0,83,0.00,,,0.00,Wunderground v.1.15,2013-04-15 14:54:00,
2013-04-15 10:57:00,63.9,59.0,30.01,NW,307,3.0,3.0,84,0.00,,,0.00,Wunderground v.1.15,2013-04-15 14:57:00,
2013-04-15 10:59:00,64.1,58.8,30.01,WSW,248,4.0,-999.0,83,0.00,,,0.00,Wunderground v.1.15,2013-04-15 14:59:00,
2013-04-15 11:02:00,64.0,58.1,30.02,WSW,256,3.0,9.0,81,0.00,,,0.00,Wunderground v.1.15,2013-04-15 15:02:00,
2013-04-15 11:04:00,64.1,58.8,30.01,WSW,248,4.0,-999.0,83,0.00,,,0.00,Wunderground v.1.15,2013-04-15 15:04:00,
2013-04-15 11:07:00,64.0,58.4,30.02,West,271,6.0,6.0,82,0.00,,,0.00,Wunderground v.1.15,2013-04-15 15:07:00,
2013-04-15 11:09:00,64.1,58.1,30.02,West,270,6.0,-999.0,81,0.00,,,0.00,Wunderground v.1.15,2013-04-15 15:09:00,
2013-04-15 11:14:00,64.1,58.1,30.02,West,270,6.0,-999.0,81,0.00,,,0.00,Wunderground v.1.15,2013-04-15 15:14:00,
2013-04-15 11:17:00,64.1,58.5,30.02,NW,316,5.0,5.0,82,0.00,,,0.00,Wunderground v.1.15,2013-04-15 15:17:00,
2013-04-15 11:19:00,64.1,58.1,30.02,West,270,6.0,-999.0,81,0.00,,,0.00,Wunderground v.1.15,2013-04-15 15:19:00,
2013-04-15 11:22:00,64.3,58.3,30.02,WNW,289,4.0,5.0,81,0.00,,,0.00,Wunderground v.1.15,2013-04-15 15:22:00,
2013-04-15 11:24:00,64.3,57.6,30.02,WNW,293,5.0,-999.0,79,0.00,,,0.00,Wunderground v.1.15,2013-04-15 15:24:00,
2013-04-15 11:27:00,64.3,57.6,30.02,West,269,5.0,6.0,79,0.00,,,0.00,Wunderground v.1.15,2013-04-15 15:27:00,
2013-04-15 11:29:00,64.3,57.6,30.02,WNW,293,5.0,-999.0,79,0.00,,,0.00,Wunderground v.1.15,2013-04-15 15:29:00,
2013-04-15 11:32:00,64.3,58.0,30.02,WNW,285,6.0,7.0,80,0.00,,,0.00,Wunderground v.1.15,2013-04-15 15:32:00,
2013-04-15 11:34:00,64.3,57.6,30.02,WNW,293,5.0,-999.0,79,0.00,,,0.00,Wunderground v.1.15,2013-04-15 15:34:00,
2013-04-15 11:39:00,64.3,58.0,30.03,West,270,6.0,-999.0,80,0.00,,,0.00,Wunderground v.1.15,2013-04-15 15:39:00,
2013-04-15 11:42:00,64.1,57.8,30.03,WNW,288,7.0,7.0,80,0.00,,,0.00,Wunderground v.1.15,2013-04-15 15:42:00,
2013-04-15 11:44:00,64.3,58.0,30.03,West,270,6.0,-999.0,80,0.00,,,0.00,Wunderground v.1.15,2013-04-15 15:44:00,
2013-04-15 11:47:00,64.3,57.6,30.03,WNW,294,6.0,6.0,79,0.00,,,0.00,Wunderground v.1.15,2013-04-15 15:47:00,
2013-04-15 11:49:00,64.3,58.0,30.03,West,270,6.0,-999.0,80,0.00,,,0.00,Wunderground v.1.15,2013-04-15 15:49:00,
2013-04-15 11:54:00,65.0,57.6,30.02,West,270,4.0,-999.0,77,0.00,,,0.00,Wunderground v.1.15,2013-04-15 15:54:00,
2013-04-15 11:57:00,64.9,58.2,30.02,West,280,4.0,4.0,79,0.00,,,0.00,Wunderground v.1.15,2013-04-15 15:57:00,
2013-04-15 11:59:00,65.0,57.6,30.02,West,270,4.0,-999.0,77,0.00,,,0.00,Wunderground v.1.15,2013-04-15 15:59:00,
2013-04-15 12:02:00,65.1,57.7,30.02,WSW,256,4.0,5.0,77,0.00,,,0.00,Wunderground v.1.15,2013-04-15 16:02:00,
2013-04-15 12:04:00,65.0,57.6,30.02,West,270,4.0,-999.0,77,0.00,,,0.00,Wunderground v.1.15,2013-04-15 16:04:00,
2013-04-15 12:07:00,65.6,58.2,30.02,West,269,4.0,4.0,77,0.00,,,0.00,Wunderground v.1.15,2013-04-15 16:07:00,
2013-04-15 12:09:00,66.1,57.9,30.02,West,270,4.0,-999.0,75,0.00,,,0.00,Wunderground v.1.15,2013-04-15 16:09:00,
2013-04-15 12:12:00,66.1,58.7,30.02,WSW,257,4.0,7.0,77,0.00,,,0.00,Wunderground v.1.15,2013-04-15 16:12:00,
2013-04-15 12:14:00,66.1,57.9,30.02,West,270,4.0,-999.0,75,0.00,,,0.00,Wunderground v.1.15,2013-04-15 16:14:00,
2013-04-15 12:19:00,66.1,57.9,30.02,West,270,4.0,-999.0,75,0.00,,,0.00,Wunderground v.1.15,2013-04-15 16:19:00,
2013-04-15 12:22:00,66.5,58.7,30.02,West,266,5.0,8.0,76,0.00,,,0.00,Wunderground v.1.15,2013-04-15 16:22:00,
2013-04-15 12:24:00,66.7,58.1,30.02,WSW,248,5.0,-999.0,74,0.00,,,0.00,Wunderground v.1.15,2013-04-15 16:24:00,
2013-04-15 12:27:00,66.8,58.2,30.02,West,270,6.0,7.0,74,0.00,,,0.00,Wunderground v.1.15,2013-04-15 16:27:00,
2013-04-15 12:29:00,66.7,58.1,30.02,WSW,248,5.0,-999.0,74,0.00,,,0.00,Wunderground v.1.15,2013-04-15 16:29:00,
2013-04-15 12:32:00,66.8,58.6,30.02,WSW,258,5.0,7.0,75,0.00,,,0.00,Wunderground v.1.15,2013-04-15 16:32:00,
2013-04-15 12:34:00,66.7,58.1,30.02,WSW,248,5.0,-999.0,74,0.00,,,0.00,Wunderground v.1.15,2013-04-15 16:34:00,
2013-04-15 12:37:00,67.1,58.5,30.02,SW,231,4.0,5.0,74,0.00,,,0.00,Wunderground v.1.15,2013-04-15 16:37:00,
2013-04-15 12:39:00,67.3,58.3,30.02,WSW,248,5.0,-999.0,73,0.00,,,0.00,Wunderground v.1.15,2013-04-15 16:39:00,
2013-04-15 12:44:00,67.3,58.3,30.02,WSW,248,5.0,-999.0,73,0.00,,,0.00,Wunderground v.1.15,2013-04-15 16:44:00,
2013-04-15 12:47:00,67.4,58.1,30.01,WSW,245,5.0,5.0,72,0.00,,,0.00,Wunderground v.1.15,2013-04-15 16:47:00,
2013-04-15 12:49:00,67.3,58.3,30.02,WSW,248,5.0,-999.0,73,0.00,,,0.00,Wunderground v.1.15,2013-04-15 16:49:00,
2013-04-15 12:54:00,68.4,58.2,30.01,WSW,248,4.0,-999.0,70,0.00,,,0.00,Wunderground v.1.15,2013-04-15 16:54:00,
2013-04-15 12:57:00,68.1,58.3,30.01,SSW,203,5.0,5.0,71,0.00,,,0.00,Wunderground v.1.15,2013-04-15 16:57:00,
2013-04-15 12:59:00,68.4,58.2,30.01,WSW,248,4.0,-999.0,70,0.00,,,0.00,Wunderground v.1.15,2013-04-15 16:59:00,
2013-04-15 13:04:00,68.4,58.2,30.01,WSW,248,4.0,-999.0,70,0.00,,,0.00,Wunderground v.1.15,2013-04-15 17:04:00,
2013-04-15 13:07:00,68.1,57.9,30.01,WSW,255,4.0,6.0,70,0.00,,,0.00,Wunderground v.1.15,2013-04-15 17:07:00,
2013-04-15 13:09:00,68.5,58.3,30.01,West,270,5.0,-999.0,70,0.00,,,0.00,Wunderground v.1.15,2013-04-15 17:09:00,
2013-04-15 13:12:00,68.4,58.6,30.01,WNW,290,5.0,6.0,71,0.00,,,0.00,Wunderground v.1.15,2013-04-15 17:12:00,
2013-04-15 13:14:00,68.5,58.3,30.01,West,270,5.0,-999.0,70,0.00,,,0.00,Wunderground v.1.15,2013-04-15 17:14:00,
2013-04-15 13:17:00,68.5,57.9,30.01,WSW,256,5.0,6.0,69,0.00,,,0.00,Wunderground v.1.15,2013-04-15 17:17:00,
2013-04-15 13:19:00,68.5,58.3,30.01,West,270,5.0,-999.0,70,0.00,,,0.00,Wunderground v.1.15,2013-04-15 17:19:00,
2013-04-15 13:22:00,68.6,58.4,30.01,WNW,288,4.0,6.0,70,0.00,,,0.00,Wunderground v.1.15,2013-04-15 17:22:00,
2013-04-15 13:24:00,68.7,57.3,30.01,West,270,5.0,-999.0,67,0.00,,,0.00,Wunderground v.1.15,2013-04-15 17:24:00,
2013-04-15 13:27:00,68.7,58.9,30.01,West,274,4.0,4.0,71,0.00,,,0.00,Wunderground v.1.15,2013-04-15 17:27:00,
2013-04-15 13:29:00,68.7,57.3,30.01,West,270,5.0,-999.0,67,0.00,,,0.00,Wunderground v.1.15,2013-04-15 17:29:00,
2013-04-15 13:32:00,68.8,58.2,30.01,West,267,5.0,5.0,69,0.00,,,0.00,Wunderground v.1.15,2013-04-15 17:32:00,
2013-04-15 13:34:00,68.7,57.3,30.01,West,270,5.0,-999.0,67,0.00,,,0.00,Wunderground v.1.15,2013-04-15 17:34:00,
2013-04-15 13:39:00,70.9,59.0,30.00,SW,225,3.0,-999.0,66,0.00,,,0.00,Wunderground v.1.15,2013-04-15 17:39:00,
2013-04-15 13:42:00,70.5,59.4,30.00,SW,217,3.0,5.0,68,0.00,,,0.00,Wunderground v.1.15,2013-04-15 17:42:00,
2013-04-15 13:44:00,70.9,59.0,30.00,SW,225,3.0,-999.0,66,0.00,,,0.00,Wunderground v.1.15,2013-04-15 17:44:00,
2013-04-15 13:47:00,71.4,59.9,30.00,SSW,200,3.0,3.0,67,0.00,,,0.00,Wunderground v.1.15,2013-04-15 17:47:00,
2013-04-15 13:49:00,70.9,59.0,30.00,SW,225,3.0,-999.0,66,0.00,,,0.00,Wunderground v.1.15,2013-04-15 17:49:00,
2013-04-15 13:52:00,72.4,59.5,30.00,SW,222,2.0,3.0,64,0.00,,,0.00,Wunderground v.1.15,2013-04-15 17:52:00,
2013-04-15 13:54:00,71.6,59.6,30.00,West,270,3.0,-999.0,66,0.00,,,0.00,Wunderground v.1.15,2013-04-15 17:54:00,
2013-04-15 13:57:00,72.3,59.0,30.00,West,270,3.0,6.0,63,0.00,,,0.00,Wunderground v.1.15,2013-04-15 17:57:00,
2013-04-15 13:59:00,71.6,59.6,30.00,West,270,3.0,-999.0,66,0.00,,,0.00,Wunderground v.1.15,2013-04-15 17:59:00,
2013-04-15 14:02:00,71.4,59.0,30.00,WNW,295,4.0,6.0,65,0.00,,,0.00,Wunderground v.1.15,2013-04-15 18:02:00,
2013-04-15 14:04:00,71.6,59.6,30.00,West,270,3.0,-999.0,66,0.00,,,0.00,Wunderground v.1.15,2013-04-15 18:04:00,
2013-04-15 14:09:00,71.5,59.1,29.99,WNW,293,3.0,-999.0,65,0.00,,,0.00,Wunderground v.1.15,2013-04-15 18:09:00,
2013-04-15 14:12:00,71.1,60.0,30.00,SW,219,3.0,3.0,68,0.00,,,0.00,Wunderground v.1.15,2013-04-15 18:12:00,
2013-04-15 14:14:00,71.5,59.1,29.99,WNW,293,3.0,-999.0,65,0.00,,,0.00,Wunderground v.1.15,2013-04-15 18:14:00,
2013-04-15 14:17:00,71.8,58.5,29.99,SW,236,3.0,3.0,63,0.00,,,0.00,Wunderground v.1.15,2013-04-15 18:17:00,
2013-04-15 14:19:00,71.5,59.1,29.99,WNW,293,3.0,-999.0,65,0.00,,,0.00,Wunderground v.1.15,2013-04-15 18:19:00,
2013-04-15 14:24:00,71.7,58.4,29.99,West,270,4.0,-999.0,63,0.00,,,0.00,Wunderground v.1.15,2013-04-15 18:24:00,
2013-04-15 14:29:00,71.7,58.4,29.99,West,270,4.0,-999.0,63,0.00,,,0.00,Wunderground v.1.15,2013-04-15 18:29:00,
2013-04-15 14:34:00,71.7,58.4,29.99,West,270,4.0,-999.0,63,0.00,,,0.00,Wunderground v.1.15,2013-04-15 18:34:00,
2013-04-15 14:39:00,72.5,57.8,29.99,West,270,4.0,-999.0,60,0.00,,,0.00,Wunderground v.1.15,2013-04-15 18:39:00,
2013-04-15 14:44:00,72.5,57.8,29.99,West,270,4.0,-999.0,60,0.00,,,0.00,Wunderground v.1.15,2013-04-15 18:44:00,
2013-04-15 14:49:00,72.5,57.8,29.99,West,270,4.0,-999.0,60,0.00,,,0.00,Wunderground v.1.15,2013-04-15 18:49:00,
2013-04-15 14:54:00,72.7,58.0,29.99,WSW,248,7.0,-999.0,60,0.00,,,0.00,Wunderground v.1.15,2013-04-15 18:54:00,
2013-04-15 14:59:00,72.7,58.0,29.99,WSW,248,7.0,-999.0,60,0.00,,,0.00,Wunderground v.1.15,2013-04-15 18:59:00,
2013-04-15 15:04:00,72.7,58.0,29.99,WSW,248,7.0,-999.0,60,0.00,,,0.00,Wunderground v.1.15,2013-04-15 19:04:00,
2013-04-15 15:09:00,73.1,58.8,29.98,West,270,5.0,-999.0,61,0.00,,,0.00,Wunderground v.1.15,2013-04-15 19:09:00,
2013-04-15 15:14:00,73.1,58.8,29.98,West,270,5.0,-999.0,61,0.00,,,0.00,Wunderground v.1.15,2013-04-15 19:14:00,
2013-04-15 15:19:00,73.1,58.8,29.98,West,270,5.0,-999.0,61,0.00,,,0.00,Wunderground v.1.15,2013-04-15 19:19:00,
2013-04-15 15:24:00,73.7,58.5,29.98,WSW,248,6.0,-999.0,59,0.00,,,0.00,Wunderground v.1.15,2013-04-15 19:24:00,
2013-04-15 15:29:00,73.7,58.5,29.98,WSW,248,6.0,-999.0,59,0.00,,,0.00,Wunderground v.1.15,2013-04-15 19:29:00,
2013-04-15 15:34:00,73.7,58.5,29.98,WSW,248,6.0,-999.0,59,0.00,,,0.00,Wunderground v.1.15,2013-04-15 19:34:00,
2013-04-15 15:39:00,74.0,58.8,29.97,WNW,293,5.0,-999.0,59,0.00,,,0.00,Wunderground v.1.15,2013-04-15 19:39:00,
2013-04-15 15:44:00,74.0,58.8,29.97,WNW,293,5.0,-999.0,59,0.00,,,0.00,Wunderground v.1.15,2013-04-15 19:44:00,
2013-04-15 15:49:00,74.0,58.8,29.97,WNW,293,5.0,-999.0,59,0.00,,,0.00,Wunderground v.1.15,2013-04-15 19:49:00,
2013-04-15 15:54:00,74.9,60.5,29.97,WNW,293,5.0,-999.0,61,0.00,,,0.00,Wunderground v.1.15,2013-04-15 19:54:00,
2013-04-15 15:59:00,74.9,60.5,29.97,WNW,293,5.0,-999.0,61,0.00,,,0.00,Wunderground v.1.15,2013-04-15 19:59:00,
2013-04-15 16:04:00,74.9,60.5,29.97,WNW,293,5.0,-999.0,61,0.00,,,0.00,Wunderground v.1.15,2013-04-15 20:04:00,
2013-04-15 16:09:00,75.1,59.8,29.96,WSW,248,6.0,-999.0,59,0.00,,,0.00,Wunderground v.1.15,2013-04-15 20:09:00,
2013-04-15 16:14:00,75.1,59.8,29.96,WSW,248,6.0,-999.0,59,0.00,,,0.00,Wunderground v.1.15,2013-04-15 20:14:00,
2013-04-15 16:19:00,75.1,59.8,29.96,WSW,248,6.0,-999.0,59,0.00,,,0.00,Wunderground v.1.15,2013-04-15 20:19:00,
2013-04-15 16:24:00,74.9,58.1,29.95,West,270,6.0,-999.0,56,0.00,,,0.00,Wunderground v.1.15,2013-04-15 20:24:00,
2013-04-15 16:29:00,74.9,58.1,29.95,West,270,6.0,-999.0,56,0.00,,,0.00,Wunderground v.1.15,2013-04-15 20:29:00,
2013-04-15 16:34:00,74.9,58.1,29.95,West,270,6.0,-999.0,56,0.00,,,0.00,Wunderground v.1.15,2013-04-15 20:34:00,
2013-04-15 16:39:00,75.5,58.2,29.95,WNW,293,7.0,-999.0,55,0.00,,,0.00,Wunderground v.1.15,2013-04-15 20:39:00,
2013-04-15 16:44:00,75.5,58.2,29.95,WNW,293,7.0,-999.0,55,0.00,,,0.00,Wunderground v.1.15,2013-04-15 20:44:00,
2013-04-15 16:49:00,75.5,58.2,29.95,WNW,293,7.0,-999.0,55,0.00,,,0.00,Wunderground v.1.15,2013-04-15 20:49:00,
2013-04-15 16:54:00,75.7,58.4,29.95,West,270,7.0,-999.0,55,0.00,,,0.00,Wunderground v.1.15,2013-04-15 20:54:00,
2013-04-15 16:59:00,75.7,58.4,29.95,West,270,7.0,-999.0,55,0.00,,,0.00,Wunderground v.1.15,2013-04-15 20:59:00,
2013-04-15 17:04:00,75.7,58.4,29.95,West,270,7.0,-999.0,55,0.00,,,0.00,Wunderground v.1.15,2013-04-15 21:04:00,
2013-04-15 17:09:00,75.9,58.6,29.95,West,270,7.0,-999.0,55,0.00,,,0.00,Wunderground v.1.15,2013-04-15 21:09:00,
2013-04-15 17:14:00,75.9,58.6,29.95,West,270,7.0,-999.0,55,0.00,,,0.00,Wunderground v.1.15,2013-04-15 21:14:00,
2013-04-15 17:19:00,75.9,58.6,29.95,West,270,7.0,-999.0,55,0.00,,,0.00,Wunderground v.1.15,2013-04-15 21:19:00,
2013-04-15 17:24:00,76.6,59.2,29.95,West,270,6.0,-999.0,55,0.00,,,0.00,Wunderground v.1.15,2013-04-15 21:24:00,
2013-04-15 17:29:00,76.6,59.2,29.95,West,270,6.0,-999.0,55,0.00,,,0.00,Wunderground v.1.15,2013-04-15 21:29:00,
2013-04-15 17:34:00,76.6,59.2,29.95,West,270,6.0,-999.0,55,0.00,,,0.00,Wunderground v.1.15,2013-04-15 21:34:00,
2013-04-15 17:39:00,76.2,57.8,29.95,West,270,8.0,-999.0,53,0.00,,,0.00,Wunderground v.1.15,2013-04-15 21:39:00,
2013-04-15 17:44:00,76.2,57.8,29.95,West,270,8.0,-999.0,53,0.00,,,0.00,Wunderground v.1.15,2013-04-15 21:44:00,
2013-04-15 17:49:00,76.2,57.8,29.95,West,270,8.0,-999.0,53,0.00,,,0.00,Wunderground v.1.15,2013-04-15 21:49:00,
2013-04-15 17:54:00,76.4,58.5,29.95,West,270,8.0,-999.0,54,0.00,,,0.00,Wunderground v.1.15,2013-04-15 21:54:00,
2013-04-15 17:59:00,76.4,58.5,29.95,West,270,8.0,-999.0,54,0.00,,,0.00,Wunderground v.1.15,2013-04-15 21:59:00,
2013-04-15 18:04:00,76.4,58.5,29.95,West,270,8.0,-999.0,54,0.00,,,0.00,Wunderground v.1.15,2013-04-15 22:04:00,
2013-04-15 18:09:00,76.4,57.5,29.95,West,270,8.0,-999.0,52,0.00,,,0.00,Wunderground v.1.15,2013-04-15 22:09:00,
2013-04-15 18:14:00,76.4,57.5,29.95,West,270,8.0,-999.0,52,0.00,,,0.00,Wunderground v.1.15,2013-04-15 22:14:00,
2013-04-15 18:19:00,76.4,57.5,29.95,West,270,8.0,-999.0,52,0.00,,,0.00,Wunderground v.1.15,2013-04-15 22:19:00,
2013-04-15 18:24:00,76.3,58.4,29.96,West,270,8.0,-999.0,54,0.00,,,0.00,Wunderground v.1.15,2013-04-15 22:24:00,
2013-04-15 18:29:00,76.3,58.4,29.96,West,270,8.0,-999.0,54,0.00,,,0.00,Wunderground v.1.15,2013-04-15 22:29:00,
2013-04-15 18:34:00,76.3,58.4,29.96,West,270,8.0,-999.0,54,0.00,,,0.00,Wunderground v.1.15,2013-04-15 22:34:00,
2013-04-15 18:39:00,76.2,57.8,29.96,West,270,8.0,-999.0,53,0.00,,,0.00,Wunderground v.1.15,2013-04-15 22:39:00,
2013-04-15 18:44:00,76.2,57.8,29.96,West,270,8.0,-999.0,53,0.00,,,0.00,Wunderground v.1.15,2013-04-15 22:44:00,
2013-04-15 18:49:00,76.2,57.8,29.96,West,270,8.0,-999.0,53,0.00,,,0.00,Wunderground v.1.15,2013-04-15 22:49:00,
2013-04-15 18:54:00,76.2,58.9,29.97,West,270,8.0,-999.0,55,0.00,,,0.00,Wunderground v.1.15,2013-04-15 22:54:00,
2013-04-15 18:59:00,76.2,58.9,29.97,West,270,8.0,-999.0,55,0.00,,,0.00,Wunderground v.1.15,2013-04-15 22:59:00,
2013-04-15 19:04:00,76.2,58.9,29.97,West,270,8.0,-999.0,55,0.00,,,0.00,Wunderground v.1.15,2013-04-15 23:04:00,
2013-04-15 19:09:00,75.8,58.0,29.97,West,270,10.0,-999.0,54,0.00,,,0.00,Wunderground v.1.15,2013-04-15 23:09:00,
2013-04-15 19:14:00,75.8,58.0,29.97,West,270,10.0,-999.0,54,0.00,,,0.00,Wunderground v.1.15,2013-04-15 23:14:00,
2013-04-15 19:19:00,75.8,58.0,29.97,West,270,10.0,-999.0,54,0.00,,,0.00,Wunderground v.1.15,2013-04-15 23:19:00,
2013-04-15 19:24:00,75.2,58.4,29.97,West,270,9.0,-999.0,56,0.00,,,0.00,Wunderground v.1.15,2013-04-15 23:24:00,
2013-04-15 19:29:00,75.2,58.4,29.97,West,270,9.0,-999.0,56,0.00,,,0.00,Wunderground v.1.15,2013-04-15 23:29:00,
2013-04-15 19:34:00,75.2,58.4,29.97,West,270,9.0,-999.0,56,0.00,,,0.00,Wunderground v.1.15,2013-04-15 23:34:00,
2013-04-15 19:39:00,74.4,59.1,29.98,West,270,8.0,-999.0,59,0.00,,,0.00,Wunderground v.1.15,2013-04-15 23:39:00,
2013-04-15 19:44:00,74.4,59.1,29.98,West,270,8.0,-999.0,59,0.00,,,0.00,Wunderground v.1.15,2013-04-15 23:44:00,
2013-04-15 19:49:00,74.4,59.1,29.98,West,270,8.0,-999.0,59,0.00,,,0.00,Wunderground v.1.15,2013-04-15 23:49:00,
2013-04-15 19:54:00,73.3,58.1,29.99,WSW,248,6.0,-999.0,59,0.00,,,0.00,Wunderground v.1.15,2013-04-15 23:54:00,
2013-04-15 19:59:00,73.3,58.1,29.99,WSW,248,6.0,-999.0,59,0.00,,,0.00,Wunderground v.1.15,2013-04-15 23:59:00,
2013-04-15 20:04:00,73.3,58.1,29.99,WSW,248,6.0,-999.0,59,0.00,,,0.00,Wunderground v.1.15,2013-04-16 00:04:00,
2013-04-15 20:09:00,72.7,58.5,29.99,West,270,5.0,-999.0,61,0.00,,,0.00,Wunderground v.1.15,2013-04-16 00:09:00,
2013-04-15 20:14:00,72.7,58.5,29.99,West,270,5.0,-999.0,61,0.00,,,0.00,Wunderground v.1.15,2013-04-16 00:14:00,
2013-04-15 20:19:00,72.7,58.5,29.99,West,270,5.0,-999.0,61,0.00,,,0.00,Wunderground v.1.15,2013-04-16 00:19:00,
2013-04-15 20:24:00,71.9,58.6,29.99,WSW,248,5.0,-999.0,63,0.00,,,0.00,Wunderground v.1.15,2013-04-16 00:24:00,
2013-04-15 20:29:00,71.9,58.6,29.99,WSW,248,5.0,-999.0,63,0.00,,,0.00,Wunderground v.1.15,2013-04-16 00:29:00,
2013-04-15 20:34:00,71.9,58.6,29.99,WSW,248,5.0,-999.0,63,0.00,,,0.00,Wunderground v.1.15,2013-04-16 00:34:00,
2013-04-15 20:39:00,71.5,58.7,30.00,WSW,248,6.0,-999.0,64,0.00,,,0.00,Wunderground v.1.15,2013-04-16 00:39:00,
2013-04-15 20:44:00,71.5,58.7,30.00,WSW,248,6.0,-999.0,64,0.00,,,0.00,Wunderground v.1.15,2013-04-16 00:44:00,
2013-04-15 20:49:00,71.5,58.7,30.00,WSW,248,6.0,-999.0,64,0.00,,,0.00,Wunderground v.1.15,2013-04-16 00:49:00,
2013-04-15 20:54:00,71.2,58.8,30.00,WSW,248,8.0,-999.0,65,0.00,,,0.00,Wunderground v.1.15,2013-04-16 00:54:00,
2013-04-15 20:59:00,71.2,58.8,30.00,WSW,248,8.0,-999.0,65,0.00,,,0.00,Wunderground v.1.15,2013-04-16 00:59:00,
2013-04-15 21:04:00,71.2,58.8,30.00,WSW,248,8.0,-999.0,65,0.00,,,0.00,Wunderground v.1.15,2013-04-16 01:04:00,
2013-04-15 21:09:00,70.5,58.6,30.01,WSW,248,6.0,-999.0,66,0.00,,,0.00,Wunderground v.1.15,2013-04-16 01:09:00,
2013-04-15 21:14:00,70.5,58.6,30.01,WSW,248,6.0,-999.0,66,0.00,,,0.00,Wunderground v.1.15,2013-04-16 01:14:00,
2013-04-15 21:19:00,70.5,58.6,30.01,WSW,248,6.0,-999.0,66,0.00,,,0.00,Wunderground v.1.15,2013-04-16 01:19:00,
2013-04-15 21:24:00,69.8,58.3,30.01,WSW,248,6.0,-999.0,67,0.00,,,0.00,Wunderground v.1.15,2013-04-16 01:24:00,
2013-04-15 21:29:00,69.8,58.3,30.01,WSW,248,6.0,-999.0,67,0.00,,,0.00,Wunderground v.1.15,2013-04-16 01:29:00,
2013-04-15 21:34:00,69.8,58.3,30.01,WSW,248,6.0,-999.0,67,0.00,,,0.00,Wunderground v.1.15,2013-04-16 01:34:00,
2013-04-15 21:39:00,68.6,58.0,30.02,SW,225,4.0,-999.0,69,0.00,,,0.00,Wunderground v.1.15,2013-04-16 01:39:00,
2013-04-15 21:44:00,68.6,58.0,30.02,SW,225,4.0,-999.0,69,0.00,,,0.00,Wunderground v.1.15,2013-04-16 01:44:00,
2013-04-15 21:49:00,68.6,58.0,30.02,SW,225,4.0,-999.0,69,0.00,,,0.00,Wunderground v.1.15,2013-04-16 01:49:00,
2013-04-15 21:54:00,69.2,57.8,30.03,WSW,248,7.0,-999.0,67,0.00,,,0.00,Wunderground v.1.15,2013-04-16 01:54:00,
2013-04-15 21:59:00,69.2,57.8,30.03,WSW,248,7.0,-999.0,67,0.00,,,0.00,Wunderground v.1.15,2013-04-16 01:59:00,
2013-04-15 22:04:00,69.2,57.8,30.03,WSW,248,7.0,-999.0,67,0.00,,,0.00,Wunderground v.1.15,2013-04-16 02:04:00,
2013-04-15 22:09:00,68.2,57.6,30.04,WSW,248,5.0,-999.0,69,0.00,,,0.00,Wunderground v.1.15,2013-04-16 02:09:00,
2013-04-15 22:14:00,68.2,57.6,30.04,WSW,248,5.0,-999.0,69,0.00,,,0.00,Wunderground v.1.15,2013-04-16 02:14:00,
2013-04-15 22:19:00,68.2,57.6,30.04,WSW,248,5.0,-999.0,69,0.00,,,0.00,Wunderground v.1.15,2013-04-16 02:19:00,
2013-04-15 22:24:00,67.5,57.4,30.05,SW,225,2.0,-999.0,70,0.00,,,0.00,Wunderground v.1.15,2013-04-16 02:24:00,
2013-04-15 22:29:00,67.5,57.4,30.05,SW,225,2.0,-999.0,70,0.00,,,0.00,Wunderground v.1.15,2013-04-16 02:29:00,
2013-04-15 22:34:00,67.5,57.4,30.05,SW,225,2.0,-999.0,70,0.00,,,0.00,Wunderground v.1.15,2013-04-16 02:34:00,
2013-04-15 22:39:00,66.9,57.2,30.05,SW,225,1.0,-999.0,71,0.00,,,0.00,Wunderground v.1.15,2013-04-16 02:39:00,
2013-04-15 22:44:00,66.9,57.2,30.05,SW,225,1.0,-999.0,71,0.00,,,0.00,Wunderground v.1.15,2013-04-16 02:44:00,
2013-04-15 22:49:00,66.9,57.2,30.05,SW,225,1.0,-999.0,71,0.00,,,0.00,Wunderground v.1.15,2013-04-16 02:49:00,
2013-04-15 22:54:00,65.7,57.2,30.06,SW,225,1.0,-999.0,74,0.00,,,0.00,Wunderground v.1.15,2013-04-16 02:54:00,
2013-04-15 22:59:00,65.7,57.2,30.06,SW,225,1.0,-999.0,74,0.00,,,0.00,Wunderground v.1.15,2013-04-16 02:59:00,
2013-04-15 23:04:00,65.7,57.2,30.06,SW,225,1.0,-999.0,74,0.00,,,0.00,Wunderground v.1.15,2013-04-16 03:04:00,
2013-04-15 23:09:00,64.5,56.8,30.06,SW,225,0.0,-999.0,76,0.00,,,0.00,Wunderground v.1.15,2013-04-16 03:09:00,
2013-04-15 23:14:00,64.5,56.8,30.06,SW,225,0.0,-999.0,76,0.00,,,0.00,Wunderground v.1.15,2013-04-16 03:14:00,
2013-04-15 23:19:00,64.5,56.8,30.06,SW,225,0.0,-999.0,76,0.00,,,0.00,Wunderground v.1.15,2013-04-16 03:19:00,
2013-04-15 23:24:00,63.3,56.7,30.06,SW,225,0.0,-999.0,79,0.00,,,0.00,Wunderground v.1.15,2013-04-16 03:24:00,
2013-04-15 23:29:00,63.3,56.7,30.06,SW,225,0.0,-999.0,79,0.00,,,0.00,Wunderground v.1.15,2013-04-16 03:29:00,
2013-04-15 23:34:00,63.3,56.7,30.06,SW,225,0.0,-999.0,79,0.00,,,0.00,Wunderground v.1.15,2013-04-16 03:34:00,
2013-04-15 23:39:00,63.2,56.9,30.06,SW,225,1.0,-999.0,80,0.00,,,0.00,Wunderground v.1.15,2013-04-16 03:39:00,
2013-04-15 23:44:00,63.2,56.9,30.06,SW,225,1.0,-999.0,80,0.00,,,0.00,Wunderground v.1.15,2013-04-16 03:44:00,
2013-04-15 23:49:00,63.2,56.9,30.06,SW,225,1.0,-999.0,80,0.00,,,0.00,Wunderground v.1.15,2013-04-16 03:49:00,
2013-04-15 23:54:00,62.9,56.3,30.06,SW,225,0.0,-999.0,79,0.00,,,0.00,Wunderground v.1.15,2013-04-16 03:54:00,
2013-04-15 23:59:00,62.9,56.3,30.06,SW,225,0.0,-999.0,79,0.00,,,0.00,Wunderground v.1.15,2013-04-16 03:59:00,